createdAt,value
2023-12-20T00:01:08.802Z,100764.75
2023-12-20T00:03:41.858Z,100762.94
2023-12-20T00:06:10.300Z,100769.72
2023-12-20T00:08:37.180Z,100771.69
2023-12-20T00:11:03.896Z,100773.81
2023-12-20T00:13:30.472Z,100769.22
2023-12-20T00:15:57.109Z,100769.72
2023-12-20T00:18:24.616Z,100759.84
2023-12-20T00:20:51.223Z,100757.22
2023-12-20T00:23:17.895Z,100759.38
2023-12-20T00:25:44.531Z,100764.41
2023-12-20T00:28:11.200Z,100750.66
2023-12-20T00:30:37.925Z,100749.81
2023-12-20T00:33:04.900Z,100750.16
2023-12-20T00:35:31.507Z,100754.41
2023-12-20T00:37:59.932Z,100757.22
2023-12-20T00:40:26.820Z,100755.13
2023-12-20T00:42:53.618Z,100759.56
2023-12-20T00:45:20.283Z,100763.66
2023-12-20T00:47:47.129Z,100750.69
2023-12-20T00:50:14.193Z,100757.94
2023-12-20T00:52:40.922Z,100762.75
2023-12-20T00:55:07.879Z,100762.41
2023-12-20T00:57:35.131Z,100758.66
2023-12-20T01:00:02.030Z,100760.16
2023-12-20T01:02:28.549Z,100765.25
2023-12-20T01:04:55.075Z,100765.41
2023-12-20T01:07:21.850Z,100763.44
2023-12-20T01:09:48.561Z,100762.28
2023-12-20T01:12:15.239Z,100762.63
2023-12-20T01:14:41.876Z,100764.22
2023-12-20T01:17:08.426Z,100758.28
2023-12-20T01:19:35.100Z,100761.91
2023-12-20T01:22:01.844Z,100750.94
2023-12-20T01:24:28.404Z,100743.06
2023-12-20T01:26:55.020Z,100743.41
2023-12-20T01:29:21.637Z,100745.50
2023-12-20T01:31:48.224Z,100741.13
2023-12-20T01:34:15.030Z,100746.69
2023-12-20T01:36:41.830Z,100736.88
2023-12-20T01:39:16.667Z,100734.25
2023-12-20T01:41:51.821Z,100734.88
2023-12-20T01:44:18.577Z,100731.75
2023-12-20T01:46:45.359Z,100741.56
2023-12-20T01:49:12.416Z,100735.69
2023-12-20T01:51:39.792Z,100739.28
2023-12-20T01:54:06.608Z,100731.75
2023-12-20T01:56:33.821Z,100732.91
2023-12-20T01:59:01.740Z,100730.44
2023-12-20T02:01:29.637Z,100728.97
2023-12-20T02:03:57.822Z,100736.00
2023-12-20T02:06:25.756Z,100733.50
2023-12-20T02:08:52.497Z,100729.56
2023-12-20T02:11:19.218Z,100734.66
2023-12-20T02:13:45.891Z,100734.22
2023-12-20T02:16:12.470Z,100729.16
2023-12-20T02:18:40.367Z,100723.06
2023-12-20T02:21:07.214Z,100729.63
2023-12-20T02:23:33.768Z,100723.41
2023-12-20T02:26:00.357Z,100731.97
2023-12-20T02:28:27.958Z,100722.75
2023-12-20T02:30:54.694Z,100722.75
2023-12-20T02:33:21.291Z,100732.13
2023-12-20T02:35:48.690Z,100719.19
2023-12-20T02:38:15.265Z,100718.03
2023-12-20T02:40:41.909Z,100719.84
2023-12-20T02:43:16.264Z,100724.75
2023-12-20T02:45:43.082Z,100725.88
2023-12-20T02:48:09.685Z,100717.50
2023-12-20T02:50:36.311Z,100710.94
2023-12-20T02:53:02.973Z,100703.41
2023-12-20T02:55:29.554Z,100707.34
2023-12-20T02:57:56.352Z,100704.38
2023-12-20T03:00:22.993Z,100700.63
2023-12-20T03:02:49.583Z,100703.69
2023-12-20T03:05:16.232Z,100715.84
2023-12-20T03:07:43.084Z,100699.28
2023-12-20T03:10:16.314Z,100698.00
2023-12-20T03:12:47.793Z,100694.69
2023-12-20T03:15:14.448Z,100698.78
2023-12-20T03:17:41.035Z,100698.44
2023-12-20T03:20:08.586Z,100680.91
2023-12-20T03:22:35.509Z,100683.72
2023-12-20T03:25:02.149Z,100677.16
2023-12-20T03:27:28.746Z,100674.06
2023-12-20T03:29:55.364Z,100685.72
2023-12-20T03:32:21.936Z,100685.38
2023-12-20T03:34:49.702Z,100690.13
2023-12-20T03:37:16.545Z,100684.38
2023-12-20T03:39:43.222Z,100692.09
2023-12-20T03:42:09.898Z,100681.25
2023-12-20T03:44:39.833Z,100687.66
2023-12-20T03:47:07.609Z,100688.59
2023-12-20T03:49:34.440Z,100685.63
2023-12-20T03:52:01.136Z,100689.41
2023-12-20T03:54:27.713Z,100683.19
2023-12-20T03:56:54.280Z,100676.47
2023-12-20T03:59:21.272Z,100678.09
2023-12-20T04:01:47.967Z,100673.69
2023-12-20T04:04:15.122Z,100663.38
2023-12-20T04:06:42.104Z,100651.91
2023-12-20T04:09:10.383Z,100657.34
2023-12-20T04:11:38.016Z,100668.63
2023-12-20T04:14:06.237Z,100669.97
2023-12-20T04:16:32.820Z,100677.84
2023-12-20T04:18:59.749Z,100691.66
2023-12-20T04:21:26.400Z,100687.88
2023-12-20T04:23:53.016Z,100691.34
2023-12-20T04:26:19.583Z,100684.13
2023-12-20T04:28:46.247Z,100690.66
2023-12-20T04:31:13.041Z,100688.53
2023-12-20T04:33:39.713Z,100702.66
2023-12-20T04:36:06.404Z,100700.38
2023-12-20T04:38:33.015Z,100701.53
2023-12-20T04:40:59.633Z,100700.38
2023-12-20T04:43:26.200Z,100705.47
2023-12-20T04:45:52.985Z,100707.94
2023-12-20T04:48:22.147Z,100709.91
2023-12-20T04:50:48.740Z,100717.44
2023-12-20T04:53:15.309Z,100711.22
2023-12-20T04:55:41.879Z,100709.25
2023-12-20T04:58:08.431Z,100704.31
2023-12-20T05:00:35.105Z,100709.09
2023-12-20T05:03:01.733Z,100707.78
2023-12-20T05:05:28.422Z,100709.09
2023-12-20T05:07:55.092Z,100707.28
2023-12-20T05:10:21.743Z,100703.34
2023-12-20T05:12:48.420Z,100707.94
2023-12-20T05:15:14.953Z,100710.78
2023-12-20T05:17:42.071Z,100708.66
2023-12-20T05:20:09.364Z,100702.56
2023-12-20T05:22:35.903Z,100695.19
2023-12-20T05:25:02.560Z,100700.13
2023-12-20T05:27:29.183Z,100695.84
2023-12-20T05:29:58.845Z,100694.69
2023-12-20T05:32:26.496Z,100685.00
2023-12-20T05:34:53.331Z,100688.63
2023-12-20T05:37:20.107Z,100690.75
2023-12-20T05:39:46.917Z,100689.28
2023-12-20T05:42:13.609Z,100689.13
2023-12-20T05:44:40.291Z,100689.75
2023-12-20T05:47:06.946Z,100706.03
2023-12-20T05:49:33.589Z,100712.59
2023-12-20T05:52:00.311Z,100701.44
2023-12-20T05:54:26.872Z,100693.19
2023-12-20T05:56:53.423Z,100691.06
2023-12-20T05:59:19.968Z,100697.81
2023-12-20T06:01:46.616Z,100692.56
2023-12-20T06:04:13.416Z,100707.84
2023-12-20T06:06:43.881Z,100697.16
2023-12-20T06:09:10.984Z,100696.84
2023-12-20T06:11:37.574Z,100696.50
2023-12-20T06:14:04.184Z,100700.78
2023-12-20T06:16:30.821Z,100690.75
2023-12-20T06:18:57.530Z,100711.63
2023-12-20T06:21:24.123Z,100704.56
2023-12-20T06:23:50.718Z,100701.75
2023-12-20T06:26:17.258Z,100699.59
2023-12-20T06:28:43.980Z,100694.50
2023-12-20T06:31:10.696Z,100696.81
2023-12-20T06:33:37.301Z,100700.78
2023-12-20T06:36:04.283Z,100715.91
2023-12-20T06:38:30.890Z,100718.19
2023-12-20T06:40:58.680Z,100734.47
2023-12-20T06:43:37.497Z,100740.56
2023-12-20T06:46:10.717Z,100747.13
2023-12-20T06:48:37.265Z,100744.16
2023-12-20T06:51:03.890Z,100743.19
2023-12-20T06:53:30.863Z,100755.34
2023-12-20T06:55:57.781Z,100749.91
2023-12-20T06:58:24.597Z,100762.91
2023-12-20T07:00:52.781Z,100763.06
2023-12-20T07:03:19.445Z,100764.72
2023-12-20T07:05:46.090Z,100779.97
2023-12-20T07:08:15.377Z,100788.53
2023-12-20T07:10:42.653Z,100783.09
2023-12-20T07:13:09.462Z,100792.31
2023-12-20T07:15:36.977Z,100793.78
2023-12-20T07:18:03.858Z,100798.25
2023-12-20T07:20:30.537Z,100802.34
2023-12-20T07:22:57.099Z,100807.44
2023-12-20T07:25:23.772Z,100822.59
2023-12-20T07:27:50.653Z,100835.25
2023-12-20T07:30:17.653Z,100836.25
2023-12-20T07:32:44.366Z,100842.66
2023-12-20T07:35:11.302Z,100850.88
2023-12-20T07:37:37.899Z,100854.84
2023-12-20T07:40:06.301Z,100873.88
2023-12-20T07:42:32.888Z,100879.34
2023-12-20T07:45:00.018Z,100884.09
2023-12-20T07:47:26.701Z,100893.97
2023-12-20T07:49:53.749Z,100910.72
2023-12-20T07:52:20.614Z,100920.63
2023-12-20T07:54:47.471Z,100934.28
2023-12-20T07:57:14.157Z,100957.97
2023-12-20T07:59:40.802Z,100984.63
2023-12-20T08:02:07.887Z,101006.00
2023-12-20T08:04:34.635Z,101041.53
2023-12-20T08:07:01.550Z,101082.44
2023-12-20T08:09:28.294Z,101132.00
2023-12-20T08:11:54.836Z,101178.38
2023-12-20T08:14:21.402Z,101239.13
2023-12-20T08:16:48.029Z,101284.06
2023-12-20T08:19:15.030Z,101340.25
2023-12-20T08:21:41.776Z,101394.78
2023-12-20T08:24:09.310Z,101457.91
2023-12-20T08:26:36.000Z,101499.28
2023-12-20T08:29:02.956Z,101554.69
2023-12-20T08:31:30.072Z,101583.75
2023-12-20T08:33:57.262Z,101605.34
2023-12-20T08:36:24.760Z,101635.69
2023-12-20T08:38:52.134Z,101677.41
2023-12-20T08:41:19.066Z,101707.47
2023-12-20T08:43:45.787Z,101735.88
2023-12-20T08:46:13.176Z,101770.53
2023-12-20T08:48:40.236Z,101782.13
2023-12-20T08:51:10.574Z,101803.06
2023-12-20T08:53:37.552Z,101829.44
2023-12-20T08:56:04.508Z,101838.63
2023-12-20T08:58:31.274Z,101867.47
2023-12-20T09:00:59.042Z,101878.03
2023-12-20T09:03:25.910Z,101897.19
2023-12-20T09:05:52.487Z,101903.16
2023-12-20T09:08:19.130Z,101914.34
2023-12-20T09:10:45.938Z,101916.56
2023-12-20T09:13:13.257Z,101921.25
2023-12-20T09:15:39.954Z,101927.47
2023-12-20T09:18:07.023Z,101933.38
2023-12-20T09:20:34.796Z,101937.75
2023-12-20T09:23:01.633Z,101955.22
2023-12-20T09:25:28.628Z,101959.78
2023-12-20T09:27:55.452Z,101966.03
2023-12-20T09:30:27.018Z,101971.16
2023-12-20T09:32:55.651Z,101986.59
2023-12-20T09:35:23.354Z,102002.69
2023-12-20T09:37:50.781Z,102002.81
2023-12-20T09:40:20.873Z,102013.47
2023-12-20T09:43:05.913Z,102003.88
2023-12-20T09:45:33.699Z,102024.44
2023-12-20T09:48:01.213Z,102019.53
2023-12-20T09:50:28.768Z,102035.00
2023-12-20T09:53:00.510Z,102037.63
2023-12-20T09:55:29.261Z,102045.09
2023-12-20T09:57:56.110Z,102050.53
2023-12-20T10:00:22.832Z,102050.84
2023-12-20T10:03:00.423Z,102056.91
2023-12-20T10:05:32.380Z,102064.03
2023-12-20T10:08:00.501Z,102054.56
2023-12-20T10:10:35.157Z,102053.06
2023-12-20T10:13:11.491Z,102061.25
2023-12-20T10:15:43.378Z,102056.50
2023-12-20T10:18:12.028Z,102057.69
2023-12-20T10:20:38.884Z,102052.88
2023-12-20T10:23:05.620Z,102038.25
2023-12-20T10:25:33.429Z,102049.22
2023-12-20T10:28:10.545Z,102043.31
2023-12-20T10:30:37.351Z,102042.22
2023-12-20T10:33:04.391Z,102030.56
2023-12-20T10:35:31.085Z,102049.00
2023-12-20T10:37:57.926Z,102043.25
2023-12-20T10:40:26.213Z,102043.78
2023-12-20T10:42:53.465Z,102054.09
2023-12-20T10:45:20.117Z,102052.94
2023-12-20T10:47:48.423Z,102037.94
2023-12-20T10:50:16.403Z,102034.84
2023-12-20T10:52:43.908Z,102030.09
2023-12-20T10:55:12.329Z,102016.41
2023-12-20T10:57:40.643Z,102010.81
2023-12-20T11:00:13.668Z,102019.81
2023-12-20T11:02:41.681Z,102019.66
2023-12-20T11:05:24.073Z,102033.84
2023-12-20T11:07:58.221Z,102035.69
2023-12-20T11:10:30.604Z,102033.69
2023-12-20T11:13:13.655Z,102039.75
2023-12-20T11:15:41.268Z,102030.44
2023-12-20T11:18:07.991Z,102021.75
2023-12-20T11:20:39.549Z,102035.75
2023-12-20T11:23:07.499Z,102016.34
2023-12-20T11:25:54.005Z,102011.22
2023-12-20T11:28:25.499Z,102024.66
2023-12-20T11:30:53.195Z,102011.41
2023-12-20T11:33:30.398Z,102009.69
2023-12-20T11:35:58.630Z,102005.59
2023-12-20T11:38:25.385Z,101979.69
2023-12-20T11:40:55.749Z,101981.50
2023-12-20T11:43:38.843Z,101983.22
2023-12-20T11:46:13.610Z,101988.03
2023-12-20T11:48:45.464Z,101990.69
2023-12-20T11:51:13.831Z,101997.41
2023-12-20T11:53:41.850Z,101999.78
2023-12-20T11:56:08.888Z,101991.00
2023-12-20T11:58:36.985Z,102001.59
2023-12-20T12:01:05.776Z,102001.47
2023-12-20T12:03:32.680Z,102007.13
2023-12-20T12:05:59.548Z,101988.97
2023-12-20T12:08:26.257Z,101988.97
2023-12-20T12:10:53.053Z,101992.16
2023-12-20T12:13:19.732Z,101990.78
2023-12-20T12:15:46.583Z,101997.00
2023-12-20T12:18:17.378Z,101989.66
2023-12-20T12:20:44.197Z,101984.03
2023-12-20T12:23:10.992Z,101979.72
2023-12-20T12:25:42.264Z,101979.94
2023-12-20T12:28:10.678Z,101980.09
2023-12-20T12:30:42.852Z,101978.56
2023-12-20T12:33:14.027Z,101975.44
2023-12-20T12:35:41.739Z,101967.28
2023-12-20T12:38:09.898Z,101969.09
2023-12-20T12:40:37.793Z,101963.81
2023-12-20T12:43:05.623Z,101950.78
2023-12-20T12:45:32.432Z,101952.75
2023-12-20T12:47:59.170Z,101938.19
2023-12-20T12:50:26.181Z,101959.72
2023-12-20T12:52:52.931Z,101940.66
2023-12-20T12:55:19.575Z,101935.22
2023-12-20T12:57:46.634Z,101936.09
2023-12-20T13:00:13.725Z,101924.31
2023-12-20T13:02:43.300Z,101932.59
2023-12-20T13:05:10.572Z,101924.16
2023-12-20T13:07:38.875Z,101920.06
2023-12-20T13:10:07.024Z,101930.16
2023-12-20T13:12:34.024Z,101924.06
2023-12-20T13:15:00.666Z,101917.72
2023-12-20T13:17:29.462Z,101903.84
2023-12-20T13:19:57.177Z,101881.13
2023-12-20T13:22:23.902Z,101896.00
2023-12-20T13:24:50.627Z,101892.69
2023-12-20T13:27:17.239Z,101881.06
2023-12-20T13:29:43.880Z,101896.47
2023-12-20T13:32:10.694Z,101889.72
2023-12-20T13:34:37.537Z,101886.13
2023-12-20T13:37:05.808Z,101879.00
2023-12-20T13:39:32.728Z,101888.09
2023-12-20T13:42:01.207Z,101882.63
2023-12-20T13:44:28.633Z,101872.03
2023-12-20T13:46:55.292Z,101859.81
2023-12-20T13:49:22.492Z,101850.38
2023-12-20T13:51:49.717Z,101848.72
2023-12-20T13:54:17.958Z,101838.09
2023-12-20T13:56:56.045Z,101842.75
2023-12-20T13:59:29.603Z,101837.28
2023-12-20T14:01:58.345Z,101831.81
2023-12-20T14:04:40.944Z,101832.44
2023-12-20T14:07:12.492Z,101830.97
2023-12-20T14:09:39.860Z,101832.31
2023-12-20T14:12:06.848Z,101846.88
2023-12-20T14:14:33.493Z,101840.88
2023-12-20T14:17:00.266Z,101839.72
2023-12-20T14:19:27.015Z,101843.78
2023-12-20T14:21:53.650Z,101837.47
2023-12-20T14:24:20.271Z,101838.59
2023-12-20T14:26:46.926Z,101829.50
2023-12-20T14:29:13.661Z,101834.78
2023-12-20T14:31:42.031Z,101840.53
2023-12-20T14:34:09.674Z,101842.88
2023-12-20T14:36:36.678Z,101844.00
2023-12-20T14:39:04.646Z,101839.88
2023-12-20T14:41:32.777Z,101848.22
2023-12-20T14:44:08.932Z,101844.25
2023-12-20T14:46:35.495Z,101847.09
2023-12-20T14:49:06.056Z,101819.22
2023-12-20T14:51:37.001Z,101841.06
2023-12-20T14:54:03.827Z,101843.19
2023-12-20T14:56:30.462Z,101832.09
2023-12-20T14:58:59.111Z,101840.72
2023-12-20T15:01:27.253Z,101846.75
2023-12-20T15:03:54.230Z,101855.53
2023-12-20T15:06:21.794Z,101856.38
2023-12-20T15:08:48.506Z,101867.91
2023-12-20T15:11:15.237Z,101860.28
2023-12-20T15:13:42.032Z,101867.22
2023-12-20T15:16:08.982Z,101865.88
2023-12-20T15:18:35.598Z,101859.59
2023-12-20T15:21:02.298Z,101860.75
2023-12-20T15:23:30.568Z,101865.19
2023-12-20T15:25:57.369Z,101858.78
2023-12-20T15:28:25.210Z,101855.84
2023-12-20T15:30:52.009Z,101865.72
2023-12-20T15:33:18.803Z,101853.34
2023-12-20T15:35:45.549Z,101865.72
2023-12-20T15:38:12.458Z,101856.00
2023-12-20T15:40:39.414Z,101837.19
2023-12-20T15:43:06.637Z,101843.09
2023-12-20T15:45:33.431Z,101839.25
2023-12-20T15:48:00.418Z,101844.00
2023-12-20T15:50:27.454Z,101840.84
2023-12-20T15:52:54.452Z,101821.16
2023-12-20T15:55:21.227Z,101827.44
2023-12-20T15:57:52.740Z,101815.34
2023-12-20T16:00:22.097Z,101807.56
2023-12-20T16:02:49.056Z,101797.63
2023-12-20T16:05:15.980Z,101787.38
2023-12-20T16:07:43.982Z,101781.78
2023-12-20T16:10:11.363Z,101787.28
2023-12-20T16:12:38.177Z,101782.84
2023-12-20T16:15:05.386Z,101783.16
2023-12-20T16:17:32.151Z,101774.75
2023-12-20T16:19:59.091Z,101763.19
2023-12-20T16:22:27.842Z,101752.78
2023-12-20T16:24:55.942Z,101747.19
2023-12-20T16:29:51.371Z,101727.06
2023-12-20T16:32:19.560Z,101710.38
2023-12-20T16:34:47.499Z,101698.31
2023-12-20T16:37:14.252Z,101702.13
2023-12-20T16:39:41.087Z,101694.53
2023-12-20T16:42:07.825Z,101679.50
2023-12-20T16:44:35.284Z,101683.97
2023-12-20T16:47:05.510Z,101683.28
2023-12-20T16:49:34.637Z,101670.25
2023-12-20T16:52:04.021Z,101660.00
2023-12-20T16:54:32.228Z,101661.34
2023-12-20T16:56:59.733Z,101662.38
2023-12-20T16:59:27.640Z,101646.03
2023-12-20T17:01:55.494Z,101640.06
2023-12-20T17:04:24.400Z,101638.38
2023-12-20T17:06:51.223Z,101637.91
2023-12-20T17:09:17.960Z,101620.06
2023-12-20T17:11:45.129Z,101623.06
2023-12-20T17:14:14.069Z,101628.50
2023-12-20T17:16:43.342Z,101611.63
2023-12-20T17:19:10.452Z,101623.84
2023-12-20T17:21:37.510Z,101596.75
2023-12-20T17:24:04.710Z,101595.94
2023-12-20T17:26:31.375Z,101583.53
2023-12-20T17:28:58.155Z,101580.41
2023-12-20T17:31:24.757Z,101570.84
2023-12-20T17:33:51.601Z,101573.81
2023-12-20T17:36:18.260Z,101567.38
2023-12-20T17:38:44.862Z,101550.69
2023-12-20T17:41:11.965Z,101543.63
2023-12-20T17:43:38.613Z,101530.72
2023-12-20T17:46:06.541Z,101531.56
2023-12-20T17:48:33.936Z,101535.19
2023-12-20T17:51:00.736Z,101521.31
2023-12-20T17:53:28.609Z,101508.63
2023-12-20T17:55:57.610Z,101518.38
2023-12-20T17:58:24.518Z,101499.06
2023-12-20T18:00:51.295Z,101495.91
2023-12-20T18:03:19.279Z,101490.97
2023-12-20T18:05:46.329Z,101488.81
2023-12-20T18:08:14.488Z,101475.59
2023-12-20T18:10:41.911Z,101477.25
2023-12-20T18:13:08.588Z,101488.31
2023-12-20T18:15:39.791Z,101479.28
2023-12-20T18:18:10.586Z,101462.09
2023-12-20T18:20:37.388Z,101460.28
2023-12-20T18:23:07.182Z,101439.78
2023-12-20T18:25:33.992Z,101454.50
2023-12-20T18:28:04.272Z,101439.97
2023-12-20T18:30:30.948Z,101434.06
2023-12-20T18:32:57.586Z,101425.97
2023-12-20T18:35:24.203Z,101431.41
2023-12-20T18:37:51.027Z,101429.75
2023-12-20T18:40:20.986Z,101431.75
2023-12-20T18:42:47.610Z,101427.44
2023-12-20T18:45:14.613Z,101428.78
2023-12-20T18:47:41.441Z,101439.34
2023-12-20T18:50:10.022Z,101444.00
2023-12-20T18:52:37.582Z,101425.34
2023-12-20T18:55:04.787Z,101432.75
2023-12-20T18:57:31.770Z,101429.13
2023-12-20T19:00:00.277Z,101425.34
2023-12-20T19:02:32.117Z,101420.03
2023-12-20T19:05:01.057Z,101417.41
2023-12-20T19:07:27.896Z,101409.97
2023-12-20T19:09:54.725Z,101415.22
2023-12-20T19:12:21.566Z,101417.72
2023-12-20T19:14:48.192Z,101422.16
2023-12-20T19:17:14.785Z,101431.75
2023-12-20T19:19:41.691Z,101412.91
2023-12-20T19:22:08.753Z,101414.75
2023-12-20T19:24:35.503Z,101421.00
2023-12-20T19:27:02.528Z,101424.81
2023-12-20T19:29:33.864Z,101411.09
2023-12-20T19:32:01.554Z,101412.88
2023-12-20T19:34:28.343Z,101412.25
2023-12-20T19:36:55.220Z,101411.41
2023-12-20T19:39:21.972Z,101412.53
2023-12-20T19:41:48.654Z,101402.63
2023-12-20T19:44:17.977Z,101393.00
2023-12-20T19:46:44.841Z,101386.41
2023-12-20T19:49:11.779Z,101402.75
2023-12-20T19:51:38.588Z,101401.06
2023-12-20T19:54:06.673Z,101407.69
2023-12-20T19:56:33.352Z,101397.75
2023-12-20T19:58:59.970Z,101396.09
2023-12-20T20:01:26.778Z,101401.91
2023-12-20T20:03:53.779Z,101424.22
2023-12-20T20:06:22.282Z,101398.75
2023-12-20T20:08:48.976Z,101404.88
2023-12-20T20:11:26.135Z,101424.06
2023-12-20T20:14:01.331Z,101402.22
2023-12-20T20:16:28.087Z,101415.78
2023-12-20T20:18:54.844Z,101412.94
2023-12-20T20:21:21.652Z,101409.47
2023-12-20T20:23:48.620Z,101418.72
2023-12-20T20:26:15.316Z,101407.63
2023-12-20T20:28:41.875Z,101415.25
2023-12-20T20:31:09.875Z,101403.81
2023-12-20T20:33:36.958Z,101418.19
2023-12-20T20:36:08.130Z,101413.06
2023-12-20T20:38:34.757Z,101398.84
2023-12-20T20:41:01.672Z,101404.97
2023-12-20T20:43:28.785Z,101409.59
2023-12-20T20:45:55.604Z,101414.53
2023-12-20T20:48:30.094Z,101417.19
2023-12-20T20:51:01.255Z,101407.13
2023-12-20T20:53:28.167Z,101404.78
2023-12-20T20:55:55.645Z,101413.72
2023-12-20T20:58:22.701Z,101411.38
2023-12-20T21:00:50.010Z,101412.56
2023-12-20T21:03:16.786Z,101410.88
2023-12-20T21:05:43.600Z,101411.25
2023-12-20T21:08:12.774Z,101410.94
2023-12-20T21:10:41.860Z,101393.59
2023-12-20T21:13:08.598Z,101383.00
2023-12-20T21:15:35.417Z,101373.72
2023-12-20T21:18:02.110Z,101371.41
2023-12-20T21:20:28.803Z,101378.34
2023-12-20T21:22:56.489Z,101372.59
2023-12-20T21:25:23.530Z,101367.63
2023-12-20T21:27:50.410Z,101367.13
2023-12-20T21:30:17.318Z,101362.63
2023-12-20T21:32:46.235Z,101351.06
2023-12-20T21:35:13.012Z,101348.59
2023-12-20T21:37:42.410Z,101346.75
2023-12-20T21:40:09.456Z,101335.38
2023-12-20T21:42:36.250Z,101338.81
2023-12-20T21:45:03.407Z,101338.81
2023-12-20T21:47:30.278Z,101343.19
2023-12-20T21:49:57.358Z,101334.72
2023-12-20T21:52:24.627Z,101340.69
2023-12-20T21:54:51.422Z,101332.28
2023-12-20T21:57:18.093Z,101349.94
2023-12-20T21:59:44.787Z,101341.88
2023-12-20T22:02:12.199Z,101355.75
2023-12-20T22:04:38.974Z,101357.22
2023-12-20T22:07:05.682Z,101352.75
2023-12-20T22:09:32.349Z,101350.78
2023-12-20T22:11:59.080Z,101334.53
2023-12-20T22:14:27.035Z,101338.50
2023-12-20T22:16:53.893Z,101340.66
2023-12-20T22:19:20.742Z,101341.47
2023-12-20T22:21:47.410Z,101351.88
2023-12-20T22:24:14.060Z,101347.78
2023-12-20T22:26:40.715Z,101338.03
2023-12-20T22:29:07.329Z,101340.66
2023-12-20T22:31:34.093Z,101350.91
2023-12-20T22:34:01.375Z,101343.94
2023-12-20T22:36:29.382Z,101342.16
2023-12-20T22:38:57.877Z,101342.78
2023-12-20T22:41:24.581Z,101339.84
2023-12-20T22:43:51.308Z,101337.66
2023-12-20T22:46:18.403Z,101339.31
2023-12-20T22:48:45.441Z,101329.56
2023-12-20T22:51:12.255Z,101340.97
2023-12-20T22:53:38.892Z,101338.50
2023-12-20T22:56:05.891Z,101332.38
2023-12-20T22:58:32.625Z,101319.97
2023-12-20T23:00:59.485Z,101323.25
2023-12-20T23:03:27.619Z,101330.22
2023-12-20T23:05:54.377Z,101328.38
2023-12-20T23:08:21.175Z,101331.38
2023-12-20T23:10:47.976Z,101340.13
2023-12-20T23:13:15.350Z,101332.38
2023-12-20T23:15:42.059Z,101329.38
2023-12-20T23:18:09.079Z,101315.00
2023-12-20T23:20:36.197Z,101309.22
2023-12-20T23:23:03.955Z,101304.41
2023-12-20T23:25:30.895Z,101306.03
2023-12-20T23:27:57.755Z,101290.88
2023-12-20T23:30:24.852Z,101297.75
2023-12-20T23:32:51.741Z,101291.63
2023-12-20T23:35:18.584Z,101277.09
2023-12-20T23:37:45.712Z,101283.69
2023-12-20T23:40:12.667Z,101282.53
2023-12-20T23:42:39.391Z,101271.94
2023-12-20T23:45:07.625Z,101266.66
2023-12-20T23:47:34.225Z,101257.22
2023-12-20T23:50:01.151Z,101247.28
2023-12-20T23:52:27.901Z,101249.75
2023-12-20T23:54:57.766Z,101246.31
2023-12-20T23:57:24.961Z,101239.34
2023-12-20T23:59:51.572Z,101237.16
